Upton, Wyoming
Current Conditions -  °F | °C
As of 6:15 AM on Saturday 22 Nov 2014 (Local Time) from KECS Reporting Station
Clear Clear  
Wind Chill: 25°   Ceiling: Unl
Heat Index: 34°   Visibility: 10mi
Dew Point: 23°   Wind: 12mph
Humidity: 65%   Direction: 120°ESE
Pressure: 29.6"   Gusts: NA
Location:  44.1°N, 104.63°W
Report Text: KECS 221315Z AUTO 12010KT 10SM CLR 01/M05 A2960 RMK AO2
Loading
Personal Weather Stations






























Interactive Weather Map New forecast layout! Learn more

10-Day Weather Forecast

Advertisements
Track Severe Weather on mobile